createdAt,value
2019-03-16T00:01:13.621Z,66.91
2019-03-16T00:06:16.325Z,67.36
2019-03-16T00:11:19.051Z,67.90
2019-03-16T00:16:21.769Z,68.05
2019-03-16T00:21:24.503Z,68.25
2019-03-16T00:26:27.205Z,68.49
2019-03-16T00:31:29.903Z,68.34
2019-03-16T00:36:32.603Z,68.74
2019-03-16T00:41:35.297Z,68.47
2019-03-16T00:46:37.995Z,68.66
2019-03-16T00:51:40.685Z,68.51
2019-03-16T00:56:43.408Z,68.30
2019-03-16T01:01:46.345Z,68.69
2019-03-16T01:06:49.597Z,68.99
2019-03-16T01:11:52.702Z,68.97
2019-03-16T01:16:56.029Z,68.86
2019-03-16T01:21:59.293Z,69.05
2019-03-16T01:27:02.435Z,68.95
2019-03-16T01:32:05.887Z,68.75
2019-03-16T01:37:09.137Z,68.55
2019-03-16T01:42:12.521Z,68.86
2019-03-16T01:47:15.971Z,68.47
2019-03-16T01:52:19.084Z,68.66
2019-03-16T01:57:22.378Z,68.37
2019-03-16T02:02:25.643Z,68.06
2019-03-16T02:07:28.563Z,67.93
2019-03-16T02:12:31.567Z,66.86
2019-03-16T02:17:34.744Z,66.48
2019-03-16T02:22:38.079Z,65.72
2019-03-16T02:27:40.845Z,65.61
2019-03-16T02:32:43.536Z,65.51
2019-03-16T02:37:46.245Z,65.01
2019-03-16T02:42:48.993Z,64.45
2019-03-16T02:47:51.698Z,64.51
2019-03-16T02:52:54.388Z,64.28
2019-03-16T02:57:57.108Z,64.13
2019-03-16T03:02:59.820Z,63.65
2019-03-16T03:08:02.537Z,63.44
2019-03-16T03:13:05.244Z,63.53
2019-03-16T03:18:07.940Z,64.28
2019-03-16T03:23:10.637Z,64.92
2019-03-16T03:28:13.339Z,65.56
2019-03-16T03:33:16.051Z,65.65
2019-03-16T03:38:18.748Z,66.03
2019-03-16T03:43:21.450Z,66.67
2019-03-16T03:48:24.169Z,67.05
2019-03-16T03:53:26.894Z,67.27
2019-03-16T03:58:29.589Z,67.52
2019-03-16T04:03:32.346Z,67.81
2019-03-16T04:08:35.110Z,68.10
2019-03-16T04:13:37.822Z,68.42
2019-03-16T04:18:40.598Z,68.80
2019-03-16T04:23:43.309Z,68.84
2019-03-16T04:28:46.036Z,69.01
2019-03-16T04:33:48.740Z,69.12
2019-03-16T04:38:51.464Z,69.19
2019-03-16T04:43:54.189Z,69.63
2019-03-16T04:48:56.901Z,69.89
2019-03-16T04:53:59.627Z,69.56
2019-03-16T04:59:02.308Z,69.52
2019-03-16T05:04:05.083Z,69.50
2019-03-16T05:09:07.796Z,69.52
2019-03-16T05:14:11.004Z,69.29
2019-03-16T05:19:14.155Z,69.25
2019-03-16T05:24:17.583Z,69.34
2019-03-16T05:29:20.413Z,69.26
2019-03-16T05:34:23.105Z,69.31
2019-03-16T05:39:25.822Z,69.53
2019-03-16T05:44:28.570Z,69.52
2019-03-16T05:49:31.276Z,68.95
2019-03-16T05:54:34.080Z,66.72
2019-03-16T05:59:36.794Z,65.57
2019-03-16T06:04:39.609Z,66.08
2019-03-16T06:09:42.343Z,65.69
2019-03-16T06:14:45.048Z,67.35
2019-03-16T06:19:47.748Z,68.86
2019-03-16T06:24:50.460Z,69.29
2019-03-16T06:29:53.159Z,71.51
2019-03-16T06:34:55.870Z,72.08
2019-03-16T06:39:58.588Z,73.46
2019-03-16T06:45:01.320Z,74.98
2019-03-16T06:50:05.808Z,76.05
2019-03-16T06:55:08.635Z,76.54
2019-03-16T07:00:11.424Z,77.14
2019-03-16T07:05:14.202Z,77.50
2019-03-16T07:10:17.028Z,77.86
2019-03-16T07:15:19.751Z,77.75
2019-03-16T07:20:22.449Z,78.01
2019-03-16T07:25:25.965Z,77.76
2019-03-16T07:30:28.772Z,78.10
2019-03-16T07:35:31.578Z,78.67
2019-03-16T07:40:34.367Z,78.76
2019-03-16T07:45:37.116Z,78.84
2019-03-16T07:50:39.844Z,78.79
2019-03-16T07:55:42.624Z,78.37
2019-03-16T08:00:45.439Z,77.78
2019-03-16T08:05:48.256Z,77.34
2019-03-16T08:10:50.975Z,77.30
2019-03-16T08:15:53.755Z,77.37
2019-03-16T08:20:56.455Z,77.46
2019-03-16T08:25:59.181Z,77.53
2019-03-16T08:31:01.905Z,77.28
2019-03-16T08:36:04.638Z,77.31
2019-03-16T08:41:07.524Z,76.94
2019-03-16T08:46:10.405Z,76.99
2019-03-16T08:51:13.112Z,77.08
2019-03-16T08:56:15.816Z,76.99
2019-03-16T09:01:18.530Z,76.73
2019-03-16T09:06:21.231Z,76.79
2019-03-16T09:11:23.941Z,76.49
2019-03-16T09:16:26.665Z,76.47
2019-03-16T09:21:29.358Z,76.22
2019-03-16T09:26:32.085Z,76.15
2019-03-16T09:31:34.787Z,76.32
2019-03-16T09:36:37.510Z,76.42
2019-03-16T09:41:40.225Z,76.25
2019-03-16T09:46:42.956Z,76.07
2019-03-16T09:51:45.672Z,76.27
2019-03-16T09:57:00.162Z,76.23
2019-03-16T10:01:52.987Z,76.29
2019-03-16T10:06:55.699Z,76.52
2019-03-16T10:11:58.395Z,76.71
2019-03-16T10:17:01.192Z,77.06
2019-03-16T10:22:03.899Z,77.46
2019-03-16T10:27:06.678Z,77.80
2019-03-16T10:32:09.376Z,78.26
2019-03-16T10:37:12.101Z,78.33
2019-03-16T10:42:14.799Z,79.25
2019-03-16T10:47:17.634Z,79.35
2019-03-16T10:52:20.392Z,79.74
2019-03-16T10:57:23.158Z,79.77
2019-03-16T11:02:25.945Z,79.90
2019-03-16T11:07:28.663Z,80.26
2019-03-16T11:12:31.387Z,80.54
2019-03-16T11:17:34.083Z,81.06
2019-03-16T11:22:36.790Z,81.57
2019-03-16T11:27:39.571Z,82.44
2019-03-16T11:32:42.557Z,83.49
2019-03-16T11:37:45.368Z,84.37
2019-03-16T11:42:48.071Z,84.94
2019-03-16T11:47:50.790Z,86.19
2019-03-16T11:52:53.533Z,87.04
2019-03-16T11:57:56.399Z,87.26
2019-03-16T12:02:59.133Z,86.70
2019-03-16T12:08:01.854Z,86.63
2019-03-16T12:13:16.501Z,86.33
2019-03-16T12:18:09.254Z,86.40
2019-03-16T12:23:12.007Z,86.34
2019-03-16T12:28:15.208Z,86.38
2019-03-16T12:33:17.973Z,85.88
2019-03-16T12:38:20.688Z,85.03
2019-03-16T12:43:23.407Z,84.95
2019-03-16T12:48:26.104Z,84.40
2019-03-16T12:53:28.827Z,84.25
2019-03-16T12:58:31.581Z,83.20
2019-03-16T13:03:34.290Z,82.31
2019-03-16T13:08:37.015Z,82.06
2019-03-16T13:13:39.832Z,81.90
2019-03-16T13:18:42.540Z,81.69
2019-03-16T13:23:45.384Z,80.68
2019-03-16T13:28:48.093Z,79.94
2019-03-16T13:33:53.324Z,79.18
2019-03-16T13:38:55.507Z,78.65
2019-03-16T13:43:58.741Z,78.40
2019-03-16T13:49:01.528Z,77.68
2019-03-16T13:54:04.480Z,77.41
2019-03-16T13:59:07.383Z,77.49
2019-03-16T14:04:10.297Z,77.45
2019-03-16T14:09:13.096Z,76.89
2019-03-16T14:14:15.804Z,77.33
2019-03-16T14:19:18.510Z,77.25
2019-03-16T14:24:21.234Z,76.54
2019-03-16T14:29:24.020Z,76.08
2019-03-16T14:34:26.790Z,76.22
2019-03-16T14:39:29.502Z,75.64
2019-03-16T14:44:32.305Z,74.65
2019-03-16T14:49:35.040Z,74.84
2019-03-16T14:54:38.079Z,74.95
2019-03-16T14:59:40.800Z,74.78
2019-03-16T15:04:43.517Z,74.41
2019-03-16T15:09:46.236Z,74.07
2019-03-16T15:14:48.952Z,74.11
2019-03-16T15:19:51.679Z,74.29
2019-03-16T15:24:54.387Z,74.63
2019-03-16T15:29:57.132Z,74.47
2019-03-16T15:34:59.828Z,74.71
2019-03-16T15:40:02.594Z,74.86
2019-03-16T15:45:09.341Z,75.84
2019-03-16T15:50:12.168Z,76.91
2019-03-16T15:55:15.081Z,77.76
2019-03-16T16:00:18.227Z,77.21
2019-03-16T16:05:21.219Z,77.12
2019-03-16T16:10:23.903Z,76.39
2019-03-16T16:15:26.612Z,76.22
2019-03-16T16:20:29.321Z,75.66
2019-03-16T16:25:32.062Z,74.66
2019-03-16T16:30:34.819Z,74.71
2019-03-16T16:35:37.598Z,73.99
2019-03-16T16:40:40.314Z,73.41
2019-03-16T16:45:43.087Z,73.54
2019-03-16T16:50:46.065Z,73.13
2019-03-16T16:55:49.006Z,72.28
2019-03-16T17:00:52.221Z,71.44
2019-03-16T17:05:55.205Z,70.64
2019-03-16T17:10:58.003Z,70.33
2019-03-16T17:16:01.365Z,70.02
2019-03-16T17:21:04.424Z,69.46
2019-03-16T17:26:07.274Z,69.17
2019-03-16T17:31:12.535Z,68.80
2019-03-16T17:36:15.881Z,68.91
2019-03-16T17:41:18.713Z,68.78
2019-03-16T17:46:21.484Z,69.08
2019-03-16T17:51:24.201Z,69.00
2019-03-16T17:56:26.928Z,69.23
2019-03-16T18:01:29.640Z,68.85
2019-03-16T18:06:32.334Z,68.81
2019-03-16T18:11:35.031Z,68.81
2019-03-16T18:16:37.767Z,69.00
2019-03-16T18:21:40.491Z,69.20
2019-03-16T18:26:43.305Z,69.16
2019-03-16T18:31:46.032Z,69.95
2019-03-16T18:36:48.728Z,69.62
2019-03-16T18:41:51.426Z,69.62
2019-03-16T18:46:54.139Z,69.79
2019-03-16T18:51:56.951Z,69.63
2019-03-16T18:56:59.690Z,69.89
2019-03-16T19:02:02.411Z,69.69
2019-03-16T19:07:05.291Z,69.10
2019-03-16T19:12:08.140Z,69.14
2019-03-16T19:17:10.835Z,68.83
2019-03-16T19:22:13.612Z,68.73
2019-03-16T19:27:19.002Z,68.37
2019-03-16T19:32:32.811Z,68.51
2019-03-16T19:37:25.578Z,68.21
2019-03-16T19:42:28.285Z,68.24
2019-03-16T19:47:31.001Z,68.05
2019-03-16T19:52:33.733Z,68.04
2019-03-16T19:57:36.646Z,68.18
2019-03-16T20:02:49.807Z,68.24
2019-03-16T20:07:44.932Z,68.57
2019-03-16T20:12:47.658Z,68.39
2019-03-16T20:17:50.390Z,67.99
2019-03-16T20:22:53.184Z,67.84
2019-03-16T20:27:56.131Z,67.69
2019-03-16T20:33:03.921Z,67.65
2019-03-16T20:38:03.452Z,67.61
2019-03-16T20:43:06.163Z,67.22
2019-03-16T20:48:08.862Z,67.15
2019-03-16T20:53:11.555Z,66.80
2019-03-16T20:58:14.281Z,66.44
2019-03-16T21:03:16.993Z,66.24
2019-03-16T21:08:19.698Z,66.46
2019-03-16T21:13:22.435Z,66.21
2019-03-16T21:18:25.224Z,65.95
2019-03-16T21:23:27.954Z,65.92
2019-03-16T21:28:30.646Z,65.99
2019-03-16T21:33:33.354Z,65.90
2019-03-16T21:38:36.053Z,65.72
2019-03-16T21:43:38.749Z,65.87
2019-03-16T21:48:41.461Z,65.77
2019-03-16T21:53:44.164Z,65.80
2019-03-16T21:58:46.873Z,65.82
2019-03-16T22:03:49.601Z,65.62
2019-03-16T22:08:52.314Z,66.02
2019-03-16T22:13:55.012Z,65.99
2019-03-16T22:18:57.710Z,66.00
2019-03-16T22:24:00.437Z,66.10
2019-03-16T22:29:03.161Z,66.11
2019-03-16T22:34:05.943Z,66.31
2019-03-16T22:39:08.648Z,65.99
2019-03-16T22:44:11.355Z,65.99
2019-03-16T22:49:14.085Z,66.45
2019-03-16T22:54:19.124Z,66.40
2019-03-16T22:59:21.446Z,66.17
2019-03-16T23:04:24.166Z,66.06
2019-03-16T23:09:26.878Z,65.93
2019-03-16T23:14:29.586Z,65.96
2019-03-16T23:19:32.530Z,65.81
2019-03-16T23:24:35.219Z,65.98
2019-03-16T23:29:37.920Z,66.33
2019-03-16T23:34:40.630Z,66.22
2019-03-16T23:39:43.328Z,65.96
2019-03-16T23:44:46.020Z,66.08
2019-03-16T23:49:48.724Z,65.99
2019-03-16T23:54:51.451Z,65.84
2019-03-16T23:59:54.157Z,65.96
